sensor_id;sensor_type;location;lat;lon;timestamp;P1;durP1;ratioP1;P2;durP2;ratioP2
4980;SDS011;2507;50.392;7.482;2023-05-14T00:01:28;18.87;;;17.07;;
4980;SDS011;2507;50.392;7.482;2023-05-14T00:03:54;20.73;;;18.63;;
4980;SDS011;2507;50.392;7.482;2023-05-14T00:06:19;23.60;;;17.37;;
4980;SDS011;2507;50.392;7.482;2023-05-14T00:08:44;21.33;;;19.17;;
4980;SDS011;2507;50.392;7.482;2023-05-14T00:11:10;19.17;;;17.30;;
4980;SDS011;2507;50.392;7.482;2023-05-14T00:13:35;19.03;;;17.17;;
4980;SDS011;2507;50.392;7.482;2023-05-14T00:16:01;39.87;;;16.10;;
4980;SDS011;2507;50.392;7.482;2023-05-14T00:18:26;18.40;;;16.60;;
4980;SDS011;2507;50.392;7.482;2023-05-14T00:20:51;19.20;;;17.37;;
4980;SDS011;2507;50.392;7.482;2023-05-14T00:23:19;20.33;;;18.00;;
4980;SDS011;2507;50.392;7.482;2023-05-14T00:25:45;20.67;;;18.67;;
4980;SDS011;2507;50.392;7.482;2023-05-14T00:28:10;23.47;;;19.13;;
4980;SDS011;2507;50.392;7.482;2023-05-14T00:30:35;22.23;;;19.80;;
4980;SDS011;2507;50.392;7.482;2023-05-14T00:33:01;22.80;;;20.40;;
4980;SDS011;2507;50.392;7.482;2023-05-14T00:35:26;24.00;;;20.40;;
4980;SDS011;2507;50.392;7.482;2023-05-14T00:37:51;20.37;;;18.37;;
4980;SDS011;2507;50.392;7.482;2023-05-14T00:40:17;19.13;;;17.07;;
4980;SDS011;2507;50.392;7.482;2023-05-14T00:42:43;20.63;;;17.17;;
4980;SDS011;2507;50.392;7.482;2023-05-14T00:45:09;18.53;;;16.73;;
4980;SDS011;2507;50.392;7.482;2023-05-14T00:47:34;19.07;;;17.00;;
4980;SDS011;2507;50.392;7.482;2023-05-14T00:50:01;24.63;;;19.10;;
4980;SDS011;2507;50.392;7.482;2023-05-14T00:52:27;18.60;;;16.57;;
4980;SDS011;2507;50.392;7.482;2023-05-14T00:54:52;23.10;;;19.47;;
4980;SDS011;2507;50.392;7.482;2023-05-14T00:57:18;20.57;;;18.37;;
4980;SDS011;2507;50.392;7.482;2023-05-14T00:59:43;21.80;;;19.20;;
4980;SDS011;2507;50.392;7.482;2023-05-14T01:02:09;19.93;;;17.93;;
4980;SDS011;2507;50.392;7.482;2023-05-14T01:04:35;20.47;;;18.43;;
4980;SDS011;2507;50.392;7.482;2023-05-14T01:07:12;24.43;;;20.00;;
4980;SDS011;2507;50.392;7.482;2023-05-14T01:09:54;23.93;;;20.87;;
4980;SDS011;2507;50.392;7.482;2023-05-14T01:17:38;25.70;;;21.70;;
4980;SDS011;2507;50.392;7.482;2023-05-14T01:20:07;30.70;;;24.43;;
4980;SDS011;2507;50.392;7.482;2023-05-14T01:22:33;33.27;;;25.73;;
4980;SDS011;2507;50.392;7.482;2023-05-14T01:24:58;31.13;;;23.53;;
4980;SDS011;2507;50.392;7.482;2023-05-14T01:30:33;27.10;;;21.97;;
4980;SDS011;2507;50.392;7.482;2023-05-14T01:33:01;28.43;;;22.90;;
4980;SDS011;2507;50.392;7.482;2023-05-14T01:35:30;26.67;;;22.90;;
4980;SDS011;2507;50.392;7.482;2023-05-14T01:37:57;27.03;;;22.80;;
4980;SDS011;2507;50.392;7.482;2023-05-14T01:40:25;26.60;;;23.10;;
4980;SDS011;2507;50.392;7.482;2023-05-14T01:42:51;30.37;;;23.80;;
4980;SDS011;2507;50.392;7.482;2023-05-14T01:45:19;27.40;;;22.20;;
4980;SDS011;2507;50.392;7.482;2023-05-14T01:47:45;29.40;;;24.20;;
4980;SDS011;2507;50.392;7.482;2023-05-14T01:50:10;29.50;;;24.47;;
4980;SDS011;2507;50.392;7.482;2023-05-14T01:52:35;29.83;;;25.00;;
4980;SDS011;2507;50.392;7.482;2023-05-14T01:55:01;41.60;;;26.80;;
4980;SDS011;2507;50.392;7.482;2023-05-14T01:57:26;85.13;;;27.20;;
4980;SDS011;2507;50.392;7.482;2023-05-14T01:59:51;88.63;;;25.80;;
4980;SDS011;2507;50.392;7.482;2023-05-14T02:02:17;49.17;;;27.07;;
4980;SDS011;2507;50.392;7.482;2023-05-14T02:04:42;36.60;;;24.20;;
4980;SDS011;2507;50.392;7.482;2023-05-14T02:07:07;30.37;;;25.50;;
4980;SDS011;2507;50.392;7.482;2023-05-14T02:09:33;57.97;;;26.17;;
4980;SDS011;2507;50.392;7.482;2023-05-14T02:11:58;37.27;;;24.90;;
4980;SDS011;2507;50.392;7.482;2023-05-14T02:14:23;45.40;;;24.80;;
4980;SDS011;2507;50.392;7.482;2023-05-14T02:16:48;54.73;;;25.27;;
4980;SDS011;2507;50.392;7.482;2023-05-14T02:19:15;26.47;;;22.90;;
4980;SDS011;2507;50.392;7.482;2023-05-14T02:21:40;32.20;;;24.63;;
4980;SDS011;2507;50.392;7.482;2023-05-14T02:24:05;29.77;;;24.37;;
4980;SDS011;2507;50.392;7.482;2023-05-14T02:26:31;31.17;;;24.30;;
4980;SDS011;2507;50.392;7.482;2023-05-14T02:28:56;27.73;;;23.27;;
4980;SDS011;2507;50.392;7.482;2023-05-14T02:31:21;26.20;;;23.50;;
4980;SDS011;2507;50.392;7.482;2023-05-14T02:33:47;24.70;;;21.07;;
4980;SDS011;2507;50.392;7.482;2023-05-14T02:36:12;30.53;;;24.47;;
4980;SDS011;2507;50.392;7.482;2023-05-14T02:38:37;85.73;;;25.23;;
4980;SDS011;2507;50.392;7.482;2023-05-14T02:41:02;50.40;;;24.70;;
4980;SDS011;2507;50.392;7.482;2023-05-14T02:43:28;32.47;;;24.47;;
4980;SDS011;2507;50.392;7.482;2023-05-14T02:45:53;28.03;;;23.63;;
4980;SDS011;2507;50.392;7.482;2023-05-14T02:48:18;25.03;;;22.33;;
4980;SDS011;2507;50.392;7.482;2023-05-14T02:50:43;46.67;;;21.10;;
4980;SDS011;2507;50.392;7.482;2023-05-14T02:53:09;61.77;;;23.17;;
4980;SDS011;2507;50.392;7.482;2023-05-14T02:55:34;51.93;;;24.97;;
4980;SDS011;2507;50.392;7.482;2023-05-14T02:58:00;42.87;;;22.20;;
4980;SDS011;2507;50.392;7.482;2023-05-14T03:00:25;57.27;;;23.90;;
4980;SDS011;2507;50.392;7.482;2023-05-14T03:02:50;45.50;;;23.40;;
4980;SDS011;2507;50.392;7.482;2023-05-14T03:05:16;46.77;;;22.47;;
4980;SDS011;2507;50.392;7.482;2023-05-14T03:07:41;24.93;;;19.80;;
4980;SDS011;2507;50.392;7.482;2023-05-14T03:10:06;56.00;;;21.00;;
4980;SDS011;2507;50.392;7.482;2023-05-14T03:12:32;50.47;;;22.13;;
4980;SDS011;2507;50.392;7.482;2023-05-14T03:14:57;24.57;;;19.80;;
4980;SDS011;2507;50.392;7.482;2023-05-14T03:17:22;27.30;;;21.40;;
4980;SDS011;2507;50.392;7.482;2023-05-14T03:19:48;26.57;;;21.47;;
4980;SDS011;2507;50.392;7.482;2023-05-14T03:22:13;59.00;;;23.40;;
4980;SDS011;2507;50.392;7.482;2023-05-14T03:24:39;29.17;;;21.97;;
4980;SDS011;2507;50.392;7.482;2023-05-14T03:27:05;29.20;;;20.80;;
4980;SDS011;2507;50.392;7.482;2023-05-14T03:29:30;24.10;;;18.00;;
4980;SDS011;2507;50.392;7.482;2023-05-14T03:31:55;26.50;;;18.30;;
4980;SDS011;2507;50.392;7.482;2023-05-14T03:34:21;67.33;;;21.40;;
4980;SDS011;2507;50.392;7.482;2023-05-14T03:36:46;25.13;;;19.50;;
4980;SDS011;2507;50.392;7.482;2023-05-14T03:39:11;32.03;;;19.63;;
4980;SDS011;2507;50.392;7.482;2023-05-14T03:41:39;33.03;;;18.27;;
4980;SDS011;2507;50.392;7.482;2023-05-14T03:44:05;30.10;;;17.60;;
4980;SDS011;2507;50.392;7.482;2023-05-14T03:46:30;21.60;;;17.07;;
4980;SDS011;2507;50.392;7.482;2023-05-14T03:48:55;37.07;;;18.03;;
4980;SDS011;2507;50.392;7.482;2023-05-14T03:51:21;34.50;;;17.83;;
4980;SDS011;2507;50.392;7.482;2023-05-14T03:53:46;72.53;;;19.03;;
4980;SDS011;2507;50.392;7.482;2023-05-14T03:56:11;36.13;;;19.30;;
4980;SDS011;2507;50.392;7.482;2023-05-14T03:58:36;26.20;;;17.27;;
4980;SDS011;2507;50.392;7.482;2023-05-14T04:01:02;35.13;;;18.77;;
4980;SDS011;2507;50.392;7.482;2023-05-14T04:03:27;43.80;;;19.70;;
4980;SDS011;2507;50.392;7.482;2023-05-14T04:05:52;24.70;;;16.93;;
4980;SDS011;2507;50.392;7.482;2023-05-14T04:08:17;22.00;;;16.13;;
4980;SDS011;2507;50.392;7.482;2023-05-14T04:10:43;26.83;;;16.10;;
4980;SDS011;2507;50.392;7.482;2023-05-14T04:13:08;29.73;;;15.73;;
4980;SDS011;2507;50.392;7.482;2023-05-14T04:15:33;25.93;;;15.00;;
4980;SDS011;2507;50.392;7.482;2023-05-14T04:17:59;31.53;;;15.27;;
4980;SDS011;2507;50.392;7.482;2023-05-14T04:20:25;24.40;;;16.30;;
4980;SDS011;2507;50.392;7.482;2023-05-14T04:22:51;20.97;;;14.70;;
4980;SDS011;2507;50.392;7.482;2023-05-14T04:25:16;29.60;;;13.33;;
4980;SDS011;2507;50.392;7.482;2023-05-14T04:27:42;20.40;;;14.27;;
4980;SDS011;2507;50.392;7.482;2023-05-14T04:30:07;19.17;;;13.80;;
4980;SDS011;2507;50.392;7.482;2023-05-14T04:32:33;21.90;;;13.83;;
4980;SDS011;2507;50.392;7.482;2023-05-14T04:34:58;31.33;;;14.40;;
4980;SDS011;2507;50.392;7.482;2023-05-14T04:37:24;20.60;;;15.17;;
4980;SDS011;2507;50.392;7.482;2023-05-14T04:39:50;24.50;;;15.77;;
4980;SDS011;2507;50.392;7.482;2023-05-14T04:42:15;22.90;;;15.30;;
4980;SDS011;2507;50.392;7.482;2023-05-14T04:44:40;20.07;;;13.63;;
4980;SDS011;2507;50.392;7.482;2023-05-14T04:47:05;23.50;;;15.23;;
4980;SDS011;2507;50.392;7.482;2023-05-14T04:49:31;35.93;;;15.53;;
4980;SDS011;2507;50.392;7.482;2023-05-14T04:51:57;18.20;;;14.70;;
4980;SDS011;2507;50.392;7.482;2023-05-14T04:54:22;52.97;;;17.43;;
4980;SDS011;2507;50.392;7.482;2023-05-14T04:56:48;20.93;;;15.53;;
4980;SDS011;2507;50.392;7.482;2023-05-14T04:59:14;19.37;;;15.23;;
4980;SDS011;2507;50.392;7.482;2023-05-14T05:01:40;22.30;;;15.87;;
4980;SDS011;2507;50.392;7.482;2023-05-14T05:04:05;19.80;;;14.80;;
4980;SDS011;2507;50.392;7.482;2023-05-14T05:06:30;21.90;;;15.03;;
4980;SDS011;2507;50.392;7.482;2023-05-14T05:08:56;28.40;;;15.10;;
4980;SDS011;2507;50.392;7.482;2023-05-14T05:11:21;24.37;;;15.93;;
4980;SDS011;2507;50.392;7.482;2023-05-14T05:13:46;53.47;;;14.77;;
4980;SDS011;2507;50.392;7.482;2023-05-14T05:16:12;15.73;;;13.43;;
4980;SDS011;2507;50.392;7.482;2023-05-14T05:18:37;28.90;;;15.13;;
4980;SDS011;2507;50.392;7.482;2023-05-14T05:21:03;16.77;;;13.10;;
4980;SDS011;2507;50.392;7.482;2023-05-14T05:23:28;19.23;;;15.00;;
4980;SDS011;2507;50.392;7.482;2023-05-14T05:25:53;24.00;;;15.03;;
4980;SDS011;2507;50.392;7.482;2023-05-14T05:28:19;21.70;;;14.63;;
4980;SDS011;2507;50.392;7.482;2023-05-14T05:30:44;22.83;;;15.30;;
4980;SDS011;2507;50.392;7.482;2023-05-14T05:33:10;35.10;;;15.27;;
4980;SDS011;2507;50.392;7.482;2023-05-14T05:35:36;27.20;;;14.93;;
4980;SDS011;2507;50.392;7.482;2023-05-14T05:38:01;24.93;;;13.93;;
4980;SDS011;2507;50.392;7.482;2023-05-14T05:40:27;37.97;;;15.03;;
4980;SDS011;2507;50.392;7.482;2023-05-14T05:42:52;18.60;;;14.60;;
4980;SDS011;2507;50.392;7.482;2023-05-14T05:45:18;20.80;;;15.23;;
4980;SDS011;2507;50.392;7.482;2023-05-14T05:47:43;24.80;;;14.60;;
4980;SDS011;2507;50.392;7.482;2023-05-14T05:50:09;17.73;;;14.23;;
4980;SDS011;2507;50.392;7.482;2023-05-14T05:52:35;24.33;;;15.70;;
4980;SDS011;2507;50.392;7.482;2023-05-14T05:55:00;21.80;;;14.83;;
4980;SDS011;2507;50.392;7.482;2023-05-14T05:57:25;22.83;;;15.10;;
4980;SDS011;2507;50.392;7.482;2023-05-14T05:59:51;25.10;;;16.13;;
4980;SDS011;2507;50.392;7.482;2023-05-14T06:02:17;27.17;;;15.80;;
4980;SDS011;2507;50.392;7.482;2023-05-14T06:04:43;27.10;;;16.40;;
4980;SDS011;2507;50.392;7.482;2023-05-14T06:07:08;16.77;;;13.93;;
4980;SDS011;2507;50.392;7.482;2023-05-14T06:09:33;19.77;;;15.53;;
4980;SDS011;2507;50.392;7.482;2023-05-14T06:11:59;16.97;;;14.33;;
4980;SDS011;2507;50.392;7.482;2023-05-14T06:14:24;20.13;;;15.20;;
4980;SDS011;2507;50.392;7.482;2023-05-14T06:16:49;19.70;;;14.40;;
4980;SDS011;2507;50.392;7.482;2023-05-14T06:19:15;17.87;;;15.13;;
4980;SDS011;2507;50.392;7.482;2023-05-14T06:21:40;29.60;;;15.40;;
4980;SDS011;2507;50.392;7.482;2023-05-14T06:24:05;25.30;;;15.70;;
4980;SDS011;2507;50.392;7.482;2023-05-14T06:26:31;18.90;;;16.60;;
4980;SDS011;2507;50.392;7.482;2023-05-14T06:28:56;19.43;;;15.97;;
4980;SDS011;2507;50.392;7.482;2023-05-14T06:31:21;18.90;;;15.97;;
4980;SDS011;2507;50.392;7.482;2023-05-14T06:33:46;19.73;;;16.57;;
4980;SDS011;2507;50.392;7.482;2023-05-14T06:36:12;19.93;;;15.73;;
4980;SDS011;2507;50.392;7.482;2023-05-14T06:38:37;18.90;;;16.40;;
4980;SDS011;2507;50.392;7.482;2023-05-14T06:41:02;18.13;;;15.27;;
4980;SDS011;2507;50.392;7.482;2023-05-14T06:43:28;17.63;;;15.50;;
4980;SDS011;2507;50.392;7.482;2023-05-14T06:45:53;19.33;;;15.00;;
4980;SDS011;2507;50.392;7.482;2023-05-14T06:48:18;17.77;;;15.57;;
4980;SDS011;2507;50.392;7.482;2023-05-14T06:50:44;28.77;;;15.47;;
4980;SDS011;2507;50.392;7.482;2023-05-14T06:53:11;17.00;;;14.53;;
4980;SDS011;2507;50.392;7.482;2023-05-14T06:55:36;17.97;;;15.13;;
4980;SDS011;2507;50.392;7.482;2023-05-14T06:58:01;15.30;;;13.80;;
4980;SDS011;2507;50.392;7.482;2023-05-14T07:00:28;16.80;;;14.43;;
4980;SDS011;2507;50.392;7.482;2023-05-14T07:02:54;14.37;;;12.87;;
4980;SDS011;2507;50.392;7.482;2023-05-14T07:05:19;14.47;;;12.43;;
4980;SDS011;2507;50.392;7.482;2023-05-14T07:07:45;15.07;;;13.57;;
4980;SDS011;2507;50.392;7.482;2023-05-14T07:10:10;13.40;;;12.10;;
4980;SDS011;2507;50.392;7.482;2023-05-14T07:12:35;13.67;;;12.27;;
4980;SDS011;2507;50.392;7.482;2023-05-14T07:15:01;12.83;;;11.57;;
4980;SDS011;2507;50.392;7.482;2023-05-14T07:17:26;13.50;;;12.20;;
4980;SDS011;2507;50.392;7.482;2023-05-14T07:19:51;14.43;;;12.60;;
4980;SDS011;2507;50.392;7.482;2023-05-14T07:22:19;12.43;;;11.17;;
4980;SDS011;2507;50.392;7.482;2023-05-14T07:24:44;13.83;;;12.10;;
4980;SDS011;2507;50.392;7.482;2023-05-14T07:27:10;12.17;;;10.97;;
4980;SDS011;2507;50.392;7.482;2023-05-14T07:29:36;14.03;;;12.43;;
4980;SDS011;2507;50.392;7.482;2023-05-14T07:32:01;12.83;;;11.10;;
4980;SDS011;2507;50.392;7.482;2023-05-14T07:34:27;12.53;;;11.23;;
4980;SDS011;2507;50.392;7.482;2023-05-14T07:36:52;11.67;;;10.57;;
4980;SDS011;2507;50.392;7.482;2023-05-14T07:39:17;12.07;;;10.97;;
4980;SDS011;2507;50.392;7.482;2023-05-14T07:41:43;12.20;;;11.00;;
4980;SDS011;2507;50.392;7.482;2023-05-14T07:44:08;13.13;;;11.83;;
4980;SDS011;2507;50.392;7.482;2023-05-14T07:46:34;12.60;;;11.37;;
4980;SDS011;2507;50.392;7.482;2023-05-14T07:49:00;13.67;;;12.40;;
4980;SDS011;2507;50.392;7.482;2023-05-14T07:51:25;13.53;;;12.13;;
4980;SDS011;2507;50.392;7.482;2023-05-14T07:53:52;12.27;;;11.10;;
4980;SDS011;2507;50.392;7.482;2023-05-14T07:56:18;11.10;;;10.10;;
4980;SDS011;2507;50.392;7.482;2023-05-14T07:58:43;14.73;;;12.17;;
4980;SDS011;2507;50.392;7.482;2023-05-14T08:01:09;13.13;;;11.90;;
4980;SDS011;2507;50.392;7.482;2023-05-14T08:03:34;13.40;;;12.10;;
4980;SDS011;2507;50.392;7.482;2023-05-14T08:05:59;12.60;;;11.40;;
4980;SDS011;2507;50.392;7.482;2023-05-14T08:08:25;11.60;;;10.60;;
4980;SDS011;2507;50.392;7.482;2023-05-14T08:10:51;13.17;;;11.97;;
4980;SDS011;2507;50.392;7.482;2023-05-14T08:13:16;12.27;;;11.17;;
4980;SDS011;2507;50.392;7.482;2023-05-14T08:15:41;12.57;;;11.47;;
4980;SDS011;2507;50.392;7.482;2023-05-14T08:18:07;13.20;;;11.83;;
4980;SDS011;2507;50.392;7.482;2023-05-14T08:20:32;12.63;;;10.97;;
4980;SDS011;2507;50.392;7.482;2023-05-14T08:22:57;12.43;;;10.30;;
4980;SDS011;2507;50.392;7.482;2023-05-14T08:25:23;11.60;;;9.70;;
4980;SDS011;2507;50.392;7.482;2023-05-14T08:27:48;11.10;;;10.00;;
4980;SDS011;2507;50.392;7.482;2023-05-14T08:30:14;11.77;;;10.57;;
4980;SDS011;2507;50.392;7.482;2023-05-14T08:32:39;12.67;;;10.50;;
4980;SDS011;2507;50.392;7.482;2023-05-14T08:35:05;11.20;;;10.20;;
4980;SDS011;2507;50.392;7.482;2023-05-14T08:37:30;10.77;;;9.87;;
4980;SDS011;2507;50.392;7.482;2023-05-14T08:39:56;11.47;;;10.53;;
4980;SDS011;2507;50.392;7.482;2023-05-14T08:42:21;10.47;;;9.57;;
4980;SDS011;2507;50.392;7.482;2023-05-14T08:44:50;12.07;;;10.87;;
4980;SDS011;2507;50.392;7.482;2023-05-14T08:47:21;11.70;;;10.70;;
4980;SDS011;2507;50.392;7.482;2023-05-14T08:49:51;12.00;;;10.77;;
4980;SDS011;2507;50.392;7.482;2023-05-14T08:52:18;11.80;;;10.63;;
4980;SDS011;2507;50.392;7.482;2023-05-14T08:54:46;11.47;;;10.47;;
4980;SDS011;2507;50.392;7.482;2023-05-14T08:57:14;12.37;;;11.23;;
4980;SDS011;2507;50.392;7.482;2023-05-14T08:59:42;12.87;;;11.57;;
4980;SDS011;2507;50.392;7.482;2023-05-14T09:02:08;11.07;;;9.97;;
4980;SDS011;2507;50.392;7.482;2023-05-14T09:04:35;11.57;;;10.67;;
4980;SDS011;2507;50.392;7.482;2023-05-14T09:07:00;11.53;;;10.53;;
4980;SDS011;2507;50.392;7.482;2023-05-14T09:09:26;11.80;;;10.80;;
4980;SDS011;2507;50.392;7.482;2023-05-14T09:11:52;11.13;;;10.13;;
4980;SDS011;2507;50.392;7.482;2023-05-14T09:14:18;10.40;;;9.60;;
4980;SDS011;2507;50.392;7.482;2023-05-14T09:16:44;10.07;;;9.23;;
4980;SDS011;2507;50.392;7.482;2023-05-14T09:19:11;10.23;;;9.33;;
4980;SDS011;2507;50.392;7.482;2023-05-14T09:21:37;8.83;;;8.23;;
4980;SDS011;2507;50.392;7.482;2023-05-14T09:24:02;6.87;;;6.47;;
4980;SDS011;2507;50.392;7.482;2023-05-14T09:26:30;7.17;;;6.47;;
4980;SDS011;2507;50.392;7.482;2023-05-14T09:28:56;7.73;;;7.23;;
4980;SDS011;2507;50.392;7.482;2023-05-14T09:31:26;7.60;;;6.90;;
4980;SDS011;2507;50.392;7.482;2023-05-14T09:33:58;5.90;;;5.50;;
4980;SDS011;2507;50.392;7.482;2023-05-14T09:36:24;6.20;;;5.80;;
4980;SDS011;2507;50.392;7.482;2023-05-14T09:38:51;6.90;;;6.40;;
4980;SDS011;2507;50.392;7.482;2023-05-14T09:41:17;8.17;;;6.10;;
4980;SDS011;2507;50.392;7.482;2023-05-14T09:43:43;7.60;;;6.17;;
4980;SDS011;2507;50.392;7.482;2023-05-14T09:46:08;6.17;;;5.77;;
4980;SDS011;2507;50.392;7.482;2023-05-14T09:48:33;8.03;;;7.33;;
4980;SDS011;2507;50.392;7.482;2023-05-14T09:50:59;7.40;;;6.80;;
4980;SDS011;2507;50.392;7.482;2023-05-14T09:53:24;6.03;;;5.63;;
4980;SDS011;2507;50.392;7.482;2023-05-14T09:55:50;7.00;;;5.87;;
4980;SDS011;2507;50.392;7.482;2023-05-14T09:58:15;6.00;;;5.50;;
4980;SDS011;2507;50.392;7.482;2023-05-14T10:00:44;6.77;;;6.27;;
4980;SDS011;2507;50.392;7.482;2023-05-14T10:03:11;6.43;;;6.03;;
4980;SDS011;2507;50.392;7.482;2023-05-14T10:05:39;5.67;;;5.27;;
4980;SDS011;2507;50.392;7.482;2023-05-14T10:08:11;4.90;;;4.60;;
4980;SDS011;2507;50.392;7.482;2023-05-14T10:10:39;5.50;;;5.17;;
4980;SDS011;2507;50.392;7.482;2023-05-14T10:13:10;4.40;;;4.20;;
4980;SDS011;2507;50.392;7.482;2023-05-14T10:15:41;5.23;;;4.87;;
4980;SDS011;2507;50.392;7.482;2023-05-14T10:18:12;4.00;;;3.80;;
4980;SDS011;2507;50.392;7.482;2023-05-14T10:20:41;4.10;;;3.90;;
4980;SDS011;2507;50.392;7.482;2023-05-14T10:23:07;4.57;;;4.37;;
4980;SDS011;2507;50.392;7.482;2023-05-14T10:25:34;5.30;;;4.37;;
4980;SDS011;2507;50.392;7.482;2023-05-14T10:28:00;4.37;;;4.17;;
4980;SDS011;2507;50.392;7.482;2023-05-14T10:30:26;4.57;;;4.27;;
4980;SDS011;2507;50.392;7.482;2023-05-14T10:33:07;4.67;;;4.40;;
4980;SDS011;2507;50.392;7.482;2023-05-14T10:35:49;4.63;;;4.33;;
4980;SDS011;2507;50.392;7.482;2023-05-14T10:38:16;4.77;;;4.47;;
4980;SDS011;2507;50.392;7.482;2023-05-14T10:40:41;4.27;;;4.07;;
4980;SDS011;2507;50.392;7.482;2023-05-14T10:43:06;4.53;;;4.20;;
4980;SDS011;2507;50.392;7.482;2023-05-14T10:45:33;4.07;;;3.83;;
4980;SDS011;2507;50.392;7.482;2023-05-14T10:48:00;5.30;;;4.90;;
4980;SDS011;2507;50.392;7.482;2023-05-14T10:50:25;5.80;;;5.40;;
4980;SDS011;2507;50.392;7.482;2023-05-14T10:52:50;4.97;;;4.53;;
4980;SDS011;2507;50.392;7.482;2023-05-14T10:55:16;4.87;;;4.20;;
4980;SDS011;2507;50.392;7.482;2023-05-14T10:57:44;5.67;;;5.17;;
4980;SDS011;2507;50.392;7.482;2023-05-14T11:00:10;4.23;;;4.03;;
4980;SDS011;2507;50.392;7.482;2023-05-14T11:02:38;3.90;;;3.70;;
4980;SDS011;2507;50.392;7.482;2023-05-14T11:10:32;4.97;;;4.57;;
4980;SDS011;2507;50.392;7.482;2023-05-14T11:12:53;4.23;;;4.03;;
4980;SDS011;2507;50.392;7.482;2023-05-14T11:15:21;4.90;;;4.67;;
4980;SDS011;2507;50.392;7.482;2023-05-14T11:17:47;4.63;;;4.33;;
4980;SDS011;2507;50.392;7.482;2023-05-14T11:20:14;4.60;;;4.30;;
4980;SDS011;2507;50.392;7.482;2023-05-14T11:22:40;4.13;;;3.83;;
4980;SDS011;2507;50.392;7.482;2023-05-14T11:25:07;4.30;;;4.00;;
4980;SDS011;2507;50.392;7.482;2023-05-14T11:27:34;5.23;;;4.93;;
4980;SDS011;2507;50.392;7.482;2023-05-14T11:30:01;4.83;;;4.53;;
4980;SDS011;2507;50.392;7.482;2023-05-14T11:32:27;4.10;;;3.90;;
4980;SDS011;2507;50.392;7.482;2023-05-14T11:34:53;4.53;;;4.13;;
4980;SDS011;2507;50.392;7.482;2023-05-14T11:37:18;4.47;;;4.27;;
4980;SDS011;2507;50.392;7.482;2023-05-14T11:39:54;4.03;;;3.73;;
4980;SDS011;2507;50.392;7.482;2023-05-14T11:42:20;4.60;;;4.30;;
4980;SDS011;2507;50.392;7.482;2023-05-14T11:44:46;3.83;;;3.63;;
4980;SDS011;2507;50.392;7.482;2023-05-14T11:47:13;4.13;;;3.83;;
4980;SDS011;2507;50.392;7.482;2023-05-14T11:49:39;3.67;;;3.50;;
4980;SDS011;2507;50.392;7.482;2023-05-14T11:52:04;4.30;;;4.10;;
4980;SDS011;2507;50.392;7.482;2023-05-14T11:54:31;4.40;;;4.10;;
4980;SDS011;2507;50.392;7.482;2023-05-14T11:56:58;5.23;;;4.80;;
4980;SDS011;2507;50.392;7.482;2023-05-14T11:59:27;4.00;;;3.80;;
4980;SDS011;2507;50.392;7.482;2023-05-14T12:01:53;4.67;;;4.37;;
4980;SDS011;2507;50.392;7.482;2023-05-14T12:04:19;4.90;;;4.50;;
4980;SDS011;2507;50.392;7.482;2023-05-14T12:06:49;4.50;;;4.30;;
4980;SDS011;2507;50.392;7.482;2023-05-14T12:09:17;7.90;;;7.40;;
4980;SDS011;2507;50.392;7.482;2023-05-14T12:11:45;4.93;;;4.53;;
4980;SDS011;2507;50.392;7.482;2023-05-14T12:14:15;4.10;;;3.70;;
4980;SDS011;2507;50.392;7.482;2023-05-14T12:16:42;3.60;;;3.40;;
4980;SDS011;2507;50.392;7.482;2023-05-14T12:19:09;4.00;;;3.70;;
4980;SDS011;2507;50.392;7.482;2023-05-14T12:21:38;3.43;;;3.13;;
4980;SDS011;2507;50.392;7.482;2023-05-14T12:24:04;3.87;;;3.67;;
4980;SDS011;2507;50.392;7.482;2023-05-14T12:26:33;3.40;;;3.27;;
4980;SDS011;2507;50.392;7.482;2023-05-14T12:28:59;3.33;;;3.03;;
4980;SDS011;2507;50.392;7.482;2023-05-14T12:31:28;3.10;;;2.90;;
4980;SDS011;2507;50.392;7.482;2023-05-14T12:33:55;3.70;;;3.50;;
4980;SDS011;2507;50.392;7.482;2023-05-14T12:36:20;5.63;;;3.87;;
4980;SDS011;2507;50.392;7.482;2023-05-14T12:38:46;3.60;;;3.40;;
4980;SDS011;2507;50.392;7.482;2023-05-14T12:41:11;3.50;;;3.30;;
4980;SDS011;2507;50.392;7.482;2023-05-14T12:43:37;3.30;;;3.10;;
4980;SDS011;2507;50.392;7.482;2023-05-14T12:46:02;3.07;;;2.97;;
4980;SDS011;2507;50.392;7.482;2023-05-14T12:48:27;3.53;;;3.33;;
4980;SDS011;2507;50.392;7.482;2023-05-14T12:50:52;3.30;;;3.10;;
4980;SDS011;2507;50.392;7.482;2023-05-14T12:53:17;3.60;;;3.40;;
4980;SDS011;2507;50.392;7.482;2023-05-14T12:55:43;3.40;;;3.30;;
4980;SDS011;2507;50.392;7.482;2023-05-14T12:58:08;3.27;;;3.10;;
4980;SDS011;2507;50.392;7.482;2023-05-14T13:00:33;3.20;;;3.10;;
4980;SDS011;2507;50.392;7.482;2023-05-14T13:02:59;3.67;;;3.43;;
4980;SDS011;2507;50.392;7.482;2023-05-14T13:05:24;3.40;;;3.20;;
4980;SDS011;2507;50.392;7.482;2023-05-14T13:07:51;3.53;;;3.33;;
4980;SDS011;2507;50.392;7.482;2023-05-14T13:10:16;3.20;;;3.10;;
4980;SDS011;2507;50.392;7.482;2023-05-14T13:12:42;3.20;;;3.00;;
4980;SDS011;2507;50.392;7.482;2023-05-14T13:15:08;2.80;;;2.70;;
4980;SDS011;2507;50.392;7.482;2023-05-14T13:17:34;3.10;;;2.90;;
4980;SDS011;2507;50.392;7.482;2023-05-14T13:19:59;3.57;;;3.37;;
4980;SDS011;2507;50.392;7.482;2023-05-14T13:22:25;3.10;;;3.00;;
4980;SDS011;2507;50.392;7.482;2023-05-14T13:24:50;3.50;;;3.20;;
4980;SDS011;2507;50.392;7.482;2023-05-14T13:27:15;2.63;;;2.53;;
4980;SDS011;2507;50.392;7.482;2023-05-14T13:29:41;2.80;;;2.70;;
4980;SDS011;2507;50.392;7.482;2023-05-14T13:32:06;2.47;;;2.37;;
4980;SDS011;2507;50.392;7.482;2023-05-14T13:34:31;3.43;;;2.63;;
4980;SDS011;2507;50.392;7.482;2023-05-14T13:36:56;3.10;;;2.80;;
4980;SDS011;2507;50.392;7.482;2023-05-14T13:39:22;2.47;;;2.37;;
4980;SDS011;2507;50.392;7.482;2023-05-14T13:41:50;2.53;;;2.33;;
4980;SDS011;2507;50.392;7.482;2023-05-14T13:44:16;3.83;;;2.50;;
4980;SDS011;2507;50.392;7.482;2023-05-14T13:46:41;1.90;;;1.90;;
4980;SDS011;2507;50.392;7.482;2023-05-14T13:49:07;1.80;;;1.70;;
4980;SDS011;2507;50.392;7.482;2023-05-14T13:51:32;2.80;;;2.70;;
4980;SDS011;2507;50.392;7.482;2023-05-14T13:53:58;3.60;;;3.40;;
4980;SDS011;2507;50.392;7.482;2023-05-14T13:56:23;2.80;;;2.70;;
4980;SDS011;2507;50.392;7.482;2023-05-14T13:58:48;2.93;;;2.73;;
4980;SDS011;2507;50.392;7.482;2023-05-14T14:01:13;2.50;;;2.40;;
4980;SDS011;2507;50.392;7.482;2023-05-14T14:03:39;2.60;;;2.50;;
4980;SDS011;2507;50.392;7.482;2023-05-14T14:06:04;2.97;;;2.77;;
4980;SDS011;2507;50.392;7.482;2023-05-14T14:08:29;3.77;;;3.07;;
4980;SDS011;2507;50.392;7.482;2023-05-14T14:10:55;2.57;;;2.47;;
4980;SDS011;2507;50.392;7.482;2023-05-14T14:13:20;3.33;;;3.00;;
4980;SDS011;2507;50.392;7.482;2023-05-14T14:15:46;2.50;;;2.40;;
4980;SDS011;2507;50.392;7.482;2023-05-14T14:18:12;2.20;;;2.10;;
4980;SDS011;2507;50.392;7.482;2023-05-14T14:20:37;1.57;;;1.57;;
4980;SDS011;2507;50.392;7.482;2023-05-14T14:23:02;3.00;;;2.50;;
4980;SDS011;2507;50.392;7.482;2023-05-14T14:25:28;3.27;;;1.60;;
4980;SDS011;2507;50.392;7.482;2023-05-14T14:27:53;1.90;;;1.80;;
4980;SDS011;2507;50.392;7.482;2023-05-14T14:30:18;2.50;;;2.30;;
4980;SDS011;2507;50.392;7.482;2023-05-14T14:32:47;3.00;;;2.10;;
4980;SDS011;2507;50.392;7.482;2023-05-14T14:35:13;1.67;;;1.67;;
4980;SDS011;2507;50.392;7.482;2023-05-14T14:37:41;2.23;;;1.50;;
4980;SDS011;2507;50.392;7.482;2023-05-14T14:40:09;5.70;;;2.50;;
4980;SDS011;2507;50.392;7.482;2023-05-14T14:42:35;2.93;;;2.80;;
4980;SDS011;2507;50.392;7.482;2023-05-14T14:45:01;3.63;;;3.20;;
4980;SDS011;2507;50.392;7.482;2023-05-14T14:47:30;2.70;;;2.60;;
4980;SDS011;2507;50.392;7.482;2023-05-14T14:49:55;3.00;;;2.90;;
4980;SDS011;2507;50.392;7.482;2023-05-14T14:52:21;3.07;;;2.97;;
4980;SDS011;2507;50.392;7.482;2023-05-14T14:54:48;4.07;;;3.37;;
4980;SDS011;2507;50.392;7.482;2023-05-14T14:57:13;3.60;;;3.33;;
4980;SDS011;2507;50.392;7.482;2023-05-14T14:59:38;2.40;;;2.30;;
4980;SDS011;2507;50.392;7.482;2023-05-14T15:02:03;3.83;;;3.50;;
4980;SDS011;2507;50.392;7.482;2023-05-14T15:04:29;2.60;;;2.50;;